createdAt,value
2018-07-26T17:21:14.941Z,9.93
2018-07-26T17:23:43.820Z,8.00
2018-07-26T17:26:11.907Z,7.53
2018-07-26T17:28:40.005Z,7.40
2018-07-26T17:31:08.109Z,7.57
2018-07-26T17:33:36.208Z,7.70
2018-07-26T17:36:04.255Z,8.33
2018-07-26T17:38:32.381Z,7.90
2018-07-26T17:41:00.537Z,9.07
2018-07-26T17:43:28.601Z,7.53
2018-07-26T17:45:56.701Z,8.00
2018-07-26T17:48:24.919Z,8.13
2018-07-26T17:50:54.837Z,7.87
2018-07-26T17:53:22.929Z,7.80
2018-07-26T17:55:50.932Z,8.03
2018-07-26T17:58:19.016Z,9.00
2018-07-26T18:00:47.078Z,10.47
2018-07-26T18:03:15.229Z,7.70
2018-07-26T18:05:43.313Z,7.60
2018-07-26T18:08:11.972Z,7.87
2018-07-26T18:10:40.755Z,10.53
2018-07-26T18:13:08.829Z,8.37
2018-07-26T18:15:37.084Z,9.23
2018-07-26T18:18:05.199Z,13.37
2018-07-26T18:20:33.263Z,9.00
2018-07-26T18:23:01.329Z,9.10
2018-07-26T18:25:29.422Z,10.63
2018-07-26T18:27:57.547Z,8.80
2018-07-26T18:30:25.644Z,9.33
2018-07-26T18:32:54.282Z,10.57
2018-07-26T18:35:22.409Z,9.43
2018-07-26T18:37:50.522Z,10.50
2018-07-26T18:40:18.597Z,9.43
2018-07-26T18:42:47.460Z,8.97
2018-07-26T18:45:15.543Z,10.00
2018-07-26T18:47:43.613Z,10.10
2018-07-26T18:50:12.051Z,9.07
2018-07-26T18:52:39.967Z,9.57
2018-07-26T18:55:09.679Z,9.27
2018-07-26T18:57:38.007Z,9.00
2018-07-26T19:00:10.086Z,9.00
2018-07-26T19:02:38.171Z,9.33
2018-07-26T19:05:06.812Z,8.80
2018-07-26T19:07:35.452Z,8.87
2018-07-26T19:10:04.441Z,8.27
2018-07-26T19:12:32.519Z,9.03
2018-07-26T19:15:00.607Z,8.90
2018-07-26T19:17:28.752Z,9.03
2018-07-26T19:19:56.765Z,9.43
2018-07-26T19:22:25.458Z,9.00
2018-07-26T19:24:53.883Z,9.80
2018-07-26T19:27:22.629Z,9.30
2018-07-26T19:29:51.310Z,8.60
2018-07-26T19:32:23.828Z,9.23
2018-07-26T19:34:52.770Z,9.03
2018-07-26T19:37:20.913Z,8.83
2018-07-26T19:39:49.621Z,9.30
2018-07-26T19:42:18.024Z,9.60
2018-07-26T19:44:46.494Z,11.13
2018-07-26T19:47:14.621Z,9.63
2018-07-26T19:49:55.845Z,9.37
2018-07-26T19:52:24.056Z,9.03
2018-07-26T20:00:42.318Z,9.57
2018-07-26T20:03:12.281Z,11.80
2018-07-26T20:05:52.073Z,12.23
2018-07-26T20:08:20.182Z,10.87
2018-07-26T20:10:48.581Z,11.27
2018-07-26T20:13:17.148Z,11.63
2018-07-26T20:15:46.229Z,10.10
2018-07-26T20:18:14.716Z,9.43
2018-07-26T20:20:42.797Z,10.20
2018-07-26T20:23:11.692Z,10.50
2018-07-26T20:25:41.031Z,9.97
2018-07-26T20:28:10.716Z,9.60
2018-07-26T20:30:38.815Z,9.90
2018-07-26T20:33:07.470Z,10.13
2018-07-26T20:35:36.353Z,9.57
2018-07-26T20:38:04.845Z,10.40
2018-07-26T20:40:34.217Z,10.83
2018-07-26T20:43:02.273Z,10.63
2018-07-26T20:45:38.457Z,10.77
2018-07-26T20:48:06.873Z,10.80
2018-07-26T20:50:35.003Z,10.37
2018-07-26T20:53:03.056Z,10.67
2018-07-26T20:55:32.037Z,10.97
2018-07-26T20:58:00.157Z,10.07
2018-07-26T21:00:28.045Z,11.47
2018-07-26T21:02:56.920Z,13.13
2018-07-26T21:05:25.096Z,10.50
2018-07-26T21:07:53.124Z,11.17
2018-07-26T21:10:21.265Z,10.17
2018-07-26T21:12:50.040Z,10.27
2018-07-26T21:15:18.093Z,10.40
2018-07-26T21:17:46.177Z,10.73
2018-07-26T21:20:14.240Z,10.63
2018-07-26T21:22:42.098Z,10.60
2018-07-26T21:25:10.149Z,10.83
2018-07-26T21:27:38.218Z,10.67
2018-07-26T21:30:07.996Z,10.70
2018-07-26T21:32:36.141Z,10.80
2018-07-26T21:35:04.621Z,10.03
2018-07-26T21:37:32.471Z,10.40
2018-07-26T21:40:00.522Z,10.20
2018-07-26T21:42:28.580Z,10.67
2018-07-26T21:44:56.667Z,10.27
2018-07-26T21:47:24.772Z,10.77
2018-07-26T21:49:52.844Z,11.87
2018-07-26T21:52:20.889Z,9.93
2018-07-26T21:54:48.957Z,10.37
2018-07-26T21:57:17.023Z,10.03
2018-07-26T21:59:45.098Z,10.00
2018-07-26T22:02:13.944Z,10.00
2018-07-26T22:04:42.313Z,9.63
2018-07-26T22:07:10.366Z,9.80
2018-07-26T22:09:38.381Z,9.47
2018-07-26T22:12:06.437Z,9.50
2018-07-26T22:14:38.168Z,9.80
2018-07-26T22:17:08.021Z,10.03
2018-07-26T22:19:37.181Z,12.00
2018-07-26T22:22:05.217Z,9.60
2018-07-26T22:24:33.284Z,9.70
2018-07-26T22:27:01.429Z,10.00
2018-07-26T22:29:30.662Z,9.47
2018-07-26T22:31:58.730Z,9.90
2018-07-26T22:34:26.828Z,9.77
2018-07-26T22:36:54.899Z,10.10
2018-07-26T22:39:24.079Z,10.10
2018-07-26T22:41:52.141Z,11.17
2018-07-26T22:44:20.239Z,9.90
2018-07-26T22:46:49.201Z,10.17
2018-07-26T22:49:17.266Z,10.07
2018-07-26T22:51:46.072Z,10.20
2018-07-26T22:54:14.130Z,9.97
2018-07-26T22:56:42.225Z,9.97
2018-07-26T22:59:10.980Z,9.87
2018-07-26T23:01:39.144Z,10.10
2018-07-26T23:04:07.202Z,10.30
2018-07-26T23:06:35.265Z,9.97
2018-07-26T23:09:03.764Z,10.30
2018-07-26T23:11:31.888Z,11.70
2018-07-26T23:13:59.940Z,10.67
2018-07-26T23:16:28.023Z,11.13
2018-07-26T23:18:56.090Z,11.07
2018-07-26T23:21:24.260Z,10.73
2018-07-26T23:23:53.945Z,10.13
2018-07-26T23:26:22.064Z,10.33
2018-07-26T23:28:50.136Z,10.80
2018-07-26T23:31:18.241Z,10.63
2018-07-26T23:33:46.339Z,10.93
2018-07-26T23:36:15.712Z,11.33
2018-07-26T23:41:52.758Z,10.73
2018-07-26T23:44:22.039Z,10.57
2018-07-26T23:46:51.186Z,10.93
2018-07-26T23:49:19.315Z,11.00
2018-07-26T23:51:47.416Z,11.53
2018-07-26T23:54:15.509Z,12.03
2018-07-26T23:56:43.954Z,11.20
2018-07-26T23:59:12.089Z,11.20
